sensor_id;sensor_type;location;lat;lon;timestamp;P1;durP1;ratioP1;P2;durP2;ratioP2
40588;SDS011;26297;49.450;6.640;2023-07-31T00:01:53;2.60;;;1.48;;
40588;SDS011;26297;49.450;6.640;2023-07-31T00:04:58;3.45;;;1.38;;
40588;SDS011;26297;49.450;6.640;2023-07-31T00:08:17;3.58;;;1.08;;
40588;SDS011;26297;49.450;6.640;2023-07-31T00:11:26;2.35;;;1.17;;
40588;SDS011;26297;49.450;6.640;2023-07-31T00:14:29;3.55;;;1.15;;
40588;SDS011;26297;49.450;6.640;2023-07-31T00:17:36;4.88;;;1.40;;
40588;SDS011;26297;49.450;6.640;2023-07-31T00:20:43;3.00;;;1.10;;
40588;SDS011;26297;49.450;6.640;2023-07-31T00:23:50;2.15;;;1.17;;
40588;SDS011;26297;49.450;6.640;2023-07-31T00:27:08;2.92;;;1.60;;
40588;SDS011;26297;49.450;6.640;2023-07-31T00:30:16;4.03;;;1.48;;
40588;SDS011;26297;49.450;6.640;2023-07-31T00:33:25;5.85;;;1.92;;
40588;SDS011;26297;49.450;6.640;2023-07-31T00:36:56;4.65;;;1.30;;
40588;SDS011;26297;49.450;6.640;2023-07-31T00:40:12;4.07;;;1.65;;
40588;SDS011;26297;49.450;6.640;2023-07-31T00:43:26;7.30;;;1.63;;
40588;SDS011;26297;49.450;6.640;2023-07-31T00:46:34;4.93;;;1.17;;
40588;SDS011;26297;49.450;6.640;2023-07-31T00:49:46;7.65;;;1.55;;
40588;SDS011;26297;49.450;6.640;2023-07-31T00:52:56;3.40;;;1.25;;
40588;SDS011;26297;49.450;6.640;2023-07-31T00:56:11;4.70;;;1.58;;
40588;SDS011;26297;49.450;6.640;2023-07-31T00:59:15;3.30;;;1.58;;
40588;SDS011;26297;49.450;6.640;2023-07-31T01:02:33;3.17;;;1.23;;
40588;SDS011;26297;49.450;6.640;2023-07-31T01:12:45;3.03;;;1.00;;
40588;SDS011;26297;49.450;6.640;2023-07-31T01:15:56;2.30;;;1.20;;
40588;SDS011;26297;49.450;6.640;2023-07-31T01:18:59;6.88;;;1.38;;
40588;SDS011;26297;49.450;6.640;2023-07-31T01:22:16;3.17;;;1.50;;
40588;SDS011;26297;49.450;6.640;2023-07-31T01:29:02;4.10;;;1.20;;
40588;SDS011;26297;49.450;6.640;2023-07-31T01:32:28;4.13;;;1.52;;
40588;SDS011;26297;49.450;6.640;2023-07-31T01:35:34;2.72;;;1.60;;
40588;SDS011;26297;49.450;6.640;2023-07-31T01:38:47;6.00;;;1.65;;
40588;SDS011;26297;49.450;6.640;2023-07-31T01:42:08;3.38;;;1.52;;
40588;SDS011;26297;49.450;6.640;2023-07-31T04:16:27;2.55;;;1.50;;
40588;SDS011;26297;49.450;6.640;2023-07-31T04:19:38;3.17;;;1.65;;
40588;SDS011;26297;49.450;6.640;2023-07-31T04:23:51;2.70;;;1.20;;
40588;SDS011;26297;49.450;6.640;2023-07-31T04:26:58;5.40;;;1.50;;
40588;SDS011;26297;49.450;6.640;2023-07-31T04:30:01;3.97;;;1.40;;
40588;SDS011;26297;49.450;6.640;2023-07-31T04:55:33;3.55;;;1.60;;
40588;SDS011;26297;49.450;6.640;2023-07-31T04:58:50;2.50;;;1.30;;
40588;SDS011;26297;49.450;6.640;2023-07-31T05:02:05;4.43;;;1.60;;
40588;SDS011;26297;49.450;6.640;2023-07-31T05:05:41;3.15;;;1.38;;
40588;SDS011;26297;49.450;6.640;2023-07-31T05:09:02;4.78;;;1.58;;
40588;SDS011;26297;49.450;6.640;2023-07-31T05:12:09;7.30;;;2.00;;
40588;SDS011;26297;49.450;6.640;2023-07-31T05:15:40;3.22;;;1.42;;
40588;SDS011;26297;49.450;6.640;2023-07-31T05:19:10;5.25;;;1.60;;
40588;SDS011;26297;49.450;6.640;2023-07-31T05:26:55;2.58;;;1.33;;
40588;SDS011;26297;49.450;6.640;2023-07-31T05:30:12;4.10;;;1.63;;
40588;SDS011;26297;49.450;6.640;2023-07-31T05:33:28;3.70;;;1.50;;
40588;SDS011;26297;49.450;6.640;2023-07-31T05:44:59;6.70;;;1.52;;
40588;SDS011;26297;49.450;6.640;2023-07-31T05:52:56;2.90;;;1.50;;
40588;SDS011;26297;49.450;6.640;2023-07-31T05:56:07;2.72;;;1.20;;
40588;SDS011;26297;49.450;6.640;2023-07-31T08:52:56;4.95;;;1.80;;
40588;SDS011;26297;49.450;6.640;2023-07-31T08:56:06;3.17;;;1.52;;
40588;SDS011;26297;49.450;6.640;2023-07-31T08:59:23;3.42;;;1.77;;
40588;SDS011;26297;49.450;6.640;2023-07-31T09:06:24;3.10;;;1.65;;
40588;SDS011;26297;49.450;6.640;2023-07-31T09:26:29;6.25;;;2.40;;
40588;SDS011;26297;49.450;6.640;2023-07-31T09:29:48;4.57;;;2.10;;
40588;SDS011;26297;49.450;6.640;2023-07-31T09:37:51;3.22;;;1.65;;
40588;SDS011;26297;49.450;6.640;2023-07-31T09:41:03;3.15;;;1.80;;
40588;SDS011;26297;49.450;6.640;2023-07-31T09:44:11;4.25;;;1.23;;
40588;SDS011;26297;49.450;6.640;2023-07-31T09:47:49;3.40;;;1.80;;
40588;SDS011;26297;49.450;6.640;2023-07-31T09:51:36;3.78;;;2.22;;
40588;SDS011;26297;49.450;6.640;2023-07-31T09:58:47;6.35;;;1.90;;
40588;SDS011;26297;49.450;6.640;2023-07-31T10:02:01;4.95;;;1.70;;
40588;SDS011;26297;49.450;6.640;2023-07-31T10:05:23;3.42;;;1.45;;
40588;SDS011;26297;49.450;6.640;2023-07-31T10:08:45;7.57;;;2.38;;
40588;SDS011;26297;49.450;6.640;2023-07-31T10:12:21;4.30;;;1.60;;
40588;SDS011;26297;49.450;6.640;2023-07-31T10:15:36;4.50;;;1.60;;
40588;SDS011;26297;49.450;6.640;2023-07-31T10:19:03;5.32;;;1.75;;
40588;SDS011;26297;49.450;6.640;2023-07-31T10:23:08;2.17;;;1.52;;
40588;SDS011;26297;49.450;6.640;2023-07-31T10:26:47;3.28;;;1.30;;
40588;SDS011;26297;49.450;6.640;2023-07-31T10:30:09;3.03;;;1.30;;
40588;SDS011;26297;49.450;6.640;2023-07-31T10:33:48;1.52;;;1.25;;
40588;SDS011;26297;49.450;6.640;2023-07-31T10:44:46;3.03;;;1.42;;
40588;SDS011;26297;49.450;6.640;2023-07-31T10:48:12;2.63;;;1.50;;
40588;SDS011;26297;49.450;6.640;2023-07-31T10:59:07;2.63;;;1.60;;
40588;SDS011;26297;49.450;6.640;2023-07-31T11:02:30;2.38;;;1.63;;
40588;SDS011;26297;49.450;6.640;2023-07-31T11:06:01;4.90;;;1.58;;
40588;SDS011;26297;49.450;6.640;2023-07-31T11:09:19;2.53;;;1.73;;
40588;SDS011;26297;49.450;6.640;2023-07-31T11:12:23;1.08;;;0.80;;
40588;SDS011;26297;49.450;6.640;2023-07-31T11:15:38;2.08;;;1.20;;
40588;SDS011;26297;49.450;6.640;2023-07-31T11:18:55;4.82;;;1.65;;
40588;SDS011;26297;49.450;6.640;2023-07-31T11:22:19;2.97;;;1.30;;
40588;SDS011;26297;49.450;6.640;2023-07-31T11:25:39;3.50;;;1.40;;
40588;SDS011;26297;49.450;6.640;2023-07-31T11:28:46;2.28;;;0.80;;
40588;SDS011;26297;49.450;6.640;2023-07-31T11:31:56;1.73;;;1.10;;
40588;SDS011;26297;49.450;6.640;2023-07-31T11:35:48;1.23;;;0.95;;
40588;SDS011;26297;49.450;6.640;2023-07-31T11:39:12;3.55;;;1.17;;
40588;SDS011;26297;49.450;6.640;2023-07-31T11:42:21;1.23;;;1.13;;
40588;SDS011;26297;49.450;6.640;2023-07-31T11:45:44;2.05;;;0.90;;
40588;SDS011;26297;49.450;6.640;2023-07-31T11:49:24;2.22;;;0.90;;
40588;SDS011;26297;49.450;6.640;2023-07-31T11:52:44;1.95;;;1.05;;
40588;SDS011;26297;49.450;6.640;2023-07-31T11:56:02;1.20;;;0.90;;
40588;SDS011;26297;49.450;6.640;2023-07-31T11:59:21;1.20;;;0.82;;
40588;SDS011;26297;49.450;6.640;2023-07-31T12:02:45;1.20;;;0.80;;
40588;SDS011;26297;49.450;6.640;2023-07-31T12:05:50;1.55;;;1.00;;
40588;SDS011;26297;49.450;6.640;2023-07-31T12:09:15;1.30;;;0.82;;
40588;SDS011;26297;49.450;6.640;2023-07-31T12:15:58;5.35;;;1.17;;
40588;SDS011;26297;49.450;6.640;2023-07-31T12:19:25;2.58;;;1.13;;
40588;SDS011;26297;49.450;6.640;2023-07-31T12:22:55;2.88;;;0.85;;
40588;SDS011;26297;49.450;6.640;2023-07-31T12:30:07;4.28;;;1.30;;
40588;SDS011;26297;49.450;6.640;2023-07-31T12:33:58;2.05;;;1.00;;
40588;SDS011;26297;49.450;6.640;2023-07-31T12:37:28;2.60;;;0.93;;
40588;SDS011;26297;49.450;6.640;2023-07-31T12:53:18;2.88;;;1.30;;
40588;SDS011;26297;49.450;6.640;2023-07-31T12:57:09;2.03;;;1.23;;
40588;SDS011;26297;49.450;6.640;2023-07-31T13:00:47;2.70;;;1.10;;
40588;SDS011;26297;49.450;6.640;2023-07-31T14:15:27;1.77;;;1.42;;
40588;SDS011;26297;49.450;6.640;2023-07-31T14:18:34;3.50;;;1.50;;
40588;SDS011;26297;49.450;6.640;2023-07-31T14:21:38;4.75;;;1.63;;
40588;SDS011;26297;49.450;6.640;2023-07-31T14:24:43;2.70;;;1.33;;
40588;SDS011;26297;49.450;6.640;2023-07-31T14:27:55;3.30;;;1.55;;
40588;SDS011;26297;49.450;6.640;2023-07-31T14:31:21;5.03;;;1.80;;
40588;SDS011;26297;49.450;6.640;2023-07-31T14:38:02;4.78;;;2.20;;
40588;SDS011;26297;49.450;6.640;2023-07-31T14:45:43;2.72;;;1.60;;
40588;SDS011;26297;49.450;6.640;2023-07-31T14:48:49;3.50;;;1.90;;
40588;SDS011;26297;49.450;6.640;2023-07-31T14:52:01;2.65;;;1.75;;
40588;SDS011;26297;49.450;6.640;2023-07-31T14:55:11;3.10;;;1.60;;
40588;SDS011;26297;49.450;6.640;2023-07-31T14:58:17;2.83;;;1.80;;
40588;SDS011;26297;49.450;6.640;2023-07-31T15:06:03;3.53;;;1.65;;
40588;SDS011;26297;49.450;6.640;2023-07-31T15:13:43;2.78;;;1.70;;
40588;SDS011;26297;49.450;6.640;2023-07-31T15:20:12;5.15;;;2.10;;
40588;SDS011;26297;49.450;6.640;2023-07-31T15:23:19;2.65;;;1.73;;
40588;SDS011;26297;49.450;6.640;2023-07-31T15:26:22;3.08;;;1.92;;
40588;SDS011;26297;49.450;6.640;2023-07-31T15:29:26;4.97;;;1.80;;
40588;SDS011;26297;49.450;6.640;2023-07-31T15:32:29;3.63;;;1.95;;
40588;SDS011;26297;49.450;6.640;2023-07-31T15:35:33;1.80;;;1.38;;
40588;SDS011;26297;49.450;6.640;2023-07-31T15:38:36;3.75;;;1.77;;
40588;SDS011;26297;49.450;6.640;2023-07-31T15:41:39;2.63;;;1.50;;
40588;SDS011;26297;49.450;6.640;2023-07-31T15:44:43;2.42;;;1.40;;
40588;SDS011;26297;49.450;6.640;2023-07-31T15:47:46;6.60;;;2.08;;
40588;SDS011;26297;49.450;6.640;2023-07-31T15:50:50;2.97;;;1.58;;
40588;SDS011;26297;49.450;6.640;2023-07-31T15:53:57;3.22;;;1.77;;
40588;SDS011;26297;49.450;6.640;2023-07-31T15:57:05;4.50;;;1.60;;
40588;SDS011;26297;49.450;6.640;2023-07-31T16:00:09;3.60;;;1.80;;
40588;SDS011;26297;49.450;6.640;2023-07-31T16:03:13;2.20;;;1.40;;
40588;SDS011;26297;49.450;6.640;2023-07-31T16:06:17;4.05;;;1.80;;
40588;SDS011;26297;49.450;6.640;2023-07-31T16:09:21;6.68;;;2.38;;
40588;SDS011;26297;49.450;6.640;2023-07-31T16:12:25;2.40;;;2.00;;
40588;SDS011;26297;49.450;6.640;2023-07-31T16:15:28;6.43;;;2.20;;
40588;SDS011;26297;49.450;6.640;2023-07-31T16:18:32;5.22;;;2.13;;
40588;SDS011;26297;49.450;6.640;2023-07-31T16:21:36;4.78;;;2.08;;
40588;SDS011;26297;49.450;6.640;2023-07-31T16:24:39;3.30;;;2.22;;
40588;SDS011;26297;49.450;6.640;2023-07-31T16:27:43;4.93;;;2.00;;
40588;SDS011;26297;49.450;6.640;2023-07-31T16:30:46;4.05;;;1.83;;
40588;SDS011;26297;49.450;6.640;2023-07-31T16:33:50;5.38;;;2.20;;
40588;SDS011;26297;49.450;6.640;2023-07-31T16:36:54;6.90;;;2.00;;
40588;SDS011;26297;49.450;6.640;2023-07-31T16:39:58;3.78;;;1.85;;
40588;SDS011;26297;49.450;6.640;2023-07-31T16:43:01;3.22;;;1.92;;
40588;SDS011;26297;49.450;6.640;2023-07-31T16:46:04;4.95;;;2.10;;
40588;SDS011;26297;49.450;6.640;2023-07-31T16:49:07;3.67;;;1.75;;
40588;SDS011;26297;49.450;6.640;2023-07-31T16:52:17;3.88;;;2.38;;
40588;SDS011;26297;49.450;6.640;2023-07-31T16:55:36;5.00;;;2.20;;
40588;SDS011;26297;49.450;6.640;2023-07-31T16:58:57;4.53;;;2.10;;
40588;SDS011;26297;49.450;6.640;2023-07-31T17:05:57;4.07;;;2.13;;
40588;SDS011;26297;49.450;6.640;2023-07-31T17:16:57;2.40;;;2.00;;
40588;SDS011;26297;49.450;6.640;2023-07-31T17:28:13;3.53;;;1.70;;
40588;SDS011;26297;49.450;6.640;2023-07-31T17:44:02;3.28;;;1.90;;
40588;SDS011;26297;49.450;6.640;2023-07-31T17:55:30;4.00;;;2.00;;
40588;SDS011;26297;49.450;6.640;2023-07-31T17:58:33;4.53;;;2.03;;
40588;SDS011;26297;49.450;6.640;2023-07-31T18:43:57;3.45;;;2.40;;
40588;SDS011;26297;49.450;6.640;2023-07-31T18:55:37;3.72;;;2.47;;
40588;SDS011;26297;49.450;6.640;2023-07-31T19:16:50;4.13;;;2.35;;
40588;SDS011;26297;49.450;6.640;2023-07-31T19:20:29;5.10;;;2.42;;
40588;SDS011;26297;49.450;6.640;2023-07-31T19:23:36;4.35;;;2.28;;
40588;SDS011;26297;49.450;6.640;2023-07-31T19:26:39;4.00;;;2.05;;
40588;SDS011;26297;49.450;6.640;2023-07-31T19:29:52;4.35;;;2.25;;
40588;SDS011;26297;49.450;6.640;2023-07-31T19:33:28;6.75;;;2.33;;
40588;SDS011;26297;49.450;6.640;2023-07-31T19:49:03;5.05;;;1.90;;
40588;SDS011;26297;49.450;6.640;2023-07-31T19:52:14;7.68;;;2.88;;
40588;SDS011;26297;49.450;6.640;2023-07-31T19:55:26;3.85;;;2.25;;
40588;SDS011;26297;49.450;6.640;2023-07-31T19:58:32;4.73;;;1.87;;
40588;SDS011;26297;49.450;6.640;2023-07-31T20:01:36;3.72;;;2.00;;
40588;SDS011;26297;49.450;6.640;2023-07-31T20:05:04;6.00;;;2.72;;
40588;SDS011;26297;49.450;6.640;2023-07-31T20:08:12;4.32;;;2.20;;
40588;SDS011;26297;49.450;6.640;2023-07-31T20:11:18;3.47;;;2.15;;
40588;SDS011;26297;49.450;6.640;2023-07-31T20:14:24;4.53;;;2.58;;
40588;SDS011;26297;49.450;6.640;2023-07-31T20:17:45;4.25;;;2.25;;
40588;SDS011;26297;49.450;6.640;2023-07-31T20:20:52;4.10;;;2.28;;
40588;SDS011;26297;49.450;6.640;2023-07-31T20:24:03;5.07;;;2.28;;
40588;SDS011;26297;49.450;6.640;2023-07-31T20:27:17;5.05;;;2.30;;
40588;SDS011;26297;49.450;6.640;2023-07-31T20:30:24;5.15;;;2.22;;
40588;SDS011;26297;49.450;6.640;2023-07-31T22:31:28;5.55;;;2.65;;
40588;SDS011;26297;49.450;6.640;2023-07-31T22:39:13;8.00;;;3.05;;
40588;SDS011;26297;49.450;6.640;2023-07-31T22:42:36;3.63;;;2.45;;
40588;SDS011;26297;49.450;6.640;2023-07-31T22:45:50;3.55;;;2.22;;
40588;SDS011;26297;49.450;6.640;2023-07-31T23:09:25;3.92;;;2.70;;
40588;SDS011;26297;49.450;6.640;2023-07-31T23:12:35;4.53;;;2.33;;
40588;SDS011;26297;49.450;6.640;2023-07-31T23:15:53;4.03;;;2.67;;
40588;SDS011;26297;49.450;6.640;2023-07-31T23:19:11;4.15;;;2.40;;
40588;SDS011;26297;49.450;6.640;2023-07-31T23:22:21;4.95;;;3.00;;
40588;SDS011;26297;49.450;6.640;2023-07-31T23:25:24;8.55;;;2.83;;
40588;SDS011;26297;49.450;6.640;2023-07-31T23:28:27;5.97;;;3.05;;
40588;SDS011;26297;49.450;6.640;2023-07-31T23:31:41;5.00;;;2.50;;
40588;SDS011;26297;49.450;6.640;2023-07-31T23:35:14;3.20;;;2.60;;
40588;SDS011;26297;49.450;6.640;2023-07-31T23:39:09;5.40;;;2.47;;
40588;SDS011;26297;49.450;6.640;2023-07-31T23:46:12;5.63;;;2.70;;
